« Back
NWS Peachtree City, Ga » Text Product » ATL Terminal Aerodrome Forecast


Printer-friendly Version
Current Version              Previous Versions:   1  2  3  4  5  6  7  8  9  

Terminal Aerodrome Forecast

847
FTUS42 KFFC 280135 AAA
TAFATL
TAF AMD
KATL 280135Z 2802/2906 12004KT P6SM SKC
     FM281100 11004KT 6SM HZ FEW250
     FM281300 10006KT P6SM FEW250
     FM281800 11007KT P6SM FEW050 SCT250
     FM290000 09004KT P6SM SCT250=

USA.gov is the U.S. government's official web portal to all federal, state and local government web resources and services.